createdAt,value
2023-04-03T07:50:21.794Z,2.35
2023-04-03T07:51:23.293Z,2.30
2023-04-03T07:52:25.126Z,1.88
2023-04-03T07:53:26.567Z,2.40
2023-04-03T07:54:28.060Z,2.30
2023-04-03T07:56:18.038Z,1.75
2023-04-03T07:57:19.414Z,1.85
2023-04-03T07:58:24.028Z,1.95
2023-04-03T07:59:25.778Z,1.67
2023-04-03T08:00:27.337Z,2.20
2023-04-03T08:01:28.839Z,2.63
2023-04-03T08:22:59.431Z,1.80
2023-04-03T08:24:00.812Z,2.45
2023-04-03T08:25:02.767Z,2.55
2023-04-03T08:26:12.089Z,2.10
2023-04-03T08:27:13.670Z,2.17
2023-04-03T08:28:15.342Z,2.25
2023-04-03T08:29:17.176Z,2.17
2023-04-03T08:30:18.653Z,2.35
2023-04-03T08:31:20.979Z,2.17
2023-04-03T08:32:23.276Z,1.98
2023-04-03T08:33:24.667Z,2.53
2023-04-03T08:34:26.096Z,1.67
2023-04-03T08:35:27.480Z,2.30
2023-04-03T08:36:30.578Z,2.25
2023-04-03T08:37:32.526Z,2.75
2023-04-03T08:49:41.290Z,2.13
2023-04-03T08:50:52.903Z,3.17
2023-04-03T08:51:57.282Z,2.03
2023-04-03T08:53:00.308Z,1.90
2023-04-03T08:54:23.470Z,2.25
2023-04-03T08:55:29.091Z,3.13
2023-04-03T08:56:32.492Z,2.55
2023-04-03T08:57:43.556Z,1.95
2023-04-03T08:59:01.702Z,2.70
2023-04-03T09:00:17.705Z,2.08
2023-04-03T09:01:37.637Z,2.20
2023-04-03T09:02:47.329Z,2.45
2023-04-03T09:03:49.749Z,1.80
2023-04-03T09:04:51.136Z,1.90
2023-04-03T09:05:58.104Z,1.90
2023-04-03T09:07:08.261Z,2.25
2023-04-03T09:08:27.162Z,2.20
2023-04-03T09:09:42.051Z,2.08
2023-04-03T09:10:43.970Z,1.95
2023-04-03T09:11:54.778Z,2.47
2023-04-03T09:13:18.966Z,1.80
2023-04-03T09:14:29.762Z,2.08
2023-04-03T09:15:38.562Z,2.42
2023-04-03T09:16:59.505Z,1.70
2023-04-03T09:18:23.792Z,2.28
2023-04-03T09:19:31.261Z,2.75
2023-04-03T09:20:47.904Z,1.60
2023-04-03T09:21:49.273Z,2.10
2023-04-03T09:22:53.001Z,2.42
2023-04-03T09:23:59.041Z,2.05
2023-04-03T09:25:14.172Z,2.20
2023-04-03T09:26:20.638Z,2.55
2023-04-03T09:27:22.286Z,2.35
2023-04-03T09:28:23.801Z,2.00
2023-04-03T09:29:25.688Z,2.15
2023-04-03T09:30:28.419Z,1.58
2023-04-03T09:31:43.427Z,2.28
2023-04-03T09:32:51.379Z,2.08
2023-04-03T09:34:03.296Z,2.42
2023-04-03T09:35:23.429Z,2.00
2023-04-03T09:36:47.292Z,1.40
2023-04-03T09:37:52.464Z,2.63
2023-04-03T09:39:10.641Z,1.70
2023-04-03T09:40:27.140Z,1.88
2023-04-03T09:41:29.287Z,2.30
2023-04-03T09:42:32.150Z,1.73
2023-04-03T09:43:36.789Z,1.48
2023-04-03T09:44:39.640Z,1.98
2023-04-03T09:45:41.538Z,1.60
2023-04-03T09:46:43.799Z,1.85
2023-04-03T09:47:45.868Z,2.17
2023-04-03T09:49:07.471Z,2.08
2023-04-03T09:50:22.874Z,2.08
2023-04-03T09:51:29.113Z,2.22
2023-04-03T09:52:32.558Z,2.05
2023-04-03T09:53:45.102Z,1.60
2023-04-03T09:54:46.521Z,2.38
2023-04-03T09:55:48.063Z,1.80
2023-04-03T09:56:54.853Z,2.10
2023-04-03T09:58:01.556Z,1.77
2023-04-03T09:59:02.904Z,1.75
2023-04-03T10:00:05.948Z,1.90
2023-04-03T10:01:23.740Z,1.77
2023-04-03T10:02:40.014Z,1.80
2023-04-03T10:03:47.505Z,1.70
2023-04-03T10:04:58.680Z,2.40
2023-04-03T10:06:24.864Z,1.73
2023-04-03T10:07:36.713Z,1.98
2023-04-03T10:08:38.267Z,1.75
2023-04-03T10:09:43.346Z,1.90
2023-04-03T10:11:05.840Z,2.30
2023-04-03T10:12:13.396Z,2.15
2023-04-03T10:13:22.096Z,1.60
2023-04-03T10:14:23.741Z,1.75
2023-04-03T10:15:29.445Z,2.50
2023-04-03T10:16:34.847Z,1.90
2023-04-03T10:17:56.622Z,1.70
2023-04-03T10:19:08.056Z,2.65
2023-04-03T10:20:36.694Z,1.90
2023-04-03T10:21:44.143Z,1.42
2023-04-03T10:23:21.128Z,1.45
2023-04-03T10:24:29.152Z,1.27
2023-04-03T10:25:42.976Z,1.42
2023-04-03T10:27:01.981Z,1.13
2023-04-03T10:28:23.612Z,1.50
2023-04-03T10:29:43.672Z,1.88
2023-04-03T10:30:57.199Z,2.85
2023-04-03T10:32:35.741Z,1.98
2023-04-03T10:33:49.715Z,1.70
2023-04-03T10:35:05.195Z,1.35
2023-04-03T10:36:16.348Z,1.92
2023-04-03T10:37:37.710Z,1.63
2023-04-03T10:39:06.785Z,1.25
2023-04-03T10:40:32.240Z,1.70
2023-04-03T10:42:16.511Z,1.58
2023-04-03T10:43:30.307Z,1.50
2023-04-03T10:44:54.774Z,1.58
2023-04-03T10:46:20.243Z,1.65
2023-04-03T10:47:32.044Z,1.25
2023-04-03T10:48:53.845Z,1.75
2023-04-03T10:50:22.850Z,1.50
2023-04-03T10:51:32.698Z,1.10
2023-04-03T10:52:43.506Z,1.35
2023-04-03T10:54:11.673Z,1.40
2023-04-03T10:55:35.029Z,1.83
2023-04-03T10:56:55.281Z,1.60
2023-04-03T10:58:05.082Z,1.73
2023-04-03T10:59:18.248Z,2.50
2023-04-03T11:00:23.894Z,1.65
2023-04-03T11:01:33.870Z,1.75
2023-04-03T11:02:53.772Z,2.05
2023-04-03T11:03:58.395Z,1.92
2023-04-03T11:05:15.768Z,1.35
2023-04-03T11:06:20.525Z,1.60
2023-04-03T11:07:29.099Z,1.80
2023-04-03T11:08:40.741Z,2.00
2023-04-03T11:09:45.110Z,1.80
2023-04-03T11:10:50.623Z,2.00
2023-04-03T11:11:58.361Z,1.88
2023-04-03T11:13:09.372Z,1.40
2023-04-03T11:14:30.006Z,2.45
2023-04-03T11:15:34.214Z,2.30
2023-04-03T11:16:47.389Z,1.77
2023-04-03T11:18:09.711Z,2.00
2023-04-03T11:19:22.668Z,1.85
2023-04-03T11:20:34.266Z,1.95
2023-04-03T11:21:42.013Z,1.80
2023-04-03T11:22:46.373Z,2.20
2023-04-03T11:23:50.257Z,1.30
2023-04-03T11:25:03.555Z,1.73
2023-04-03T11:26:12.406Z,1.63
2023-04-03T12:41:45.985Z,1.70
2023-04-03T12:43:05.253Z,1.42
2023-04-03T12:44:16.810Z,1.67
2023-04-03T12:45:22.182Z,1.45
2023-04-03T12:46:25.170Z,1.58
2023-04-03T12:47:39.191Z,1.38
2023-04-03T12:48:56.277Z,1.70
2023-04-03T12:49:59.389Z,1.40
2023-04-03T12:51:01.799Z,1.52
2023-04-03T12:52:07.069Z,1.50
2023-04-03T12:53:16.324Z,17.77
2023-04-03T12:54:23.665Z,14.25
2023-04-03T12:55:25.384Z,17.55
2023-04-03T12:56:31.392Z,23.00
2023-04-03T12:57:34.427Z,2.88
2023-04-03T12:58:36.225Z,1.50
2023-04-03T12:59:39.083Z,1.42
2023-04-03T13:00:40.680Z,1.35
2023-04-03T13:01:42.073Z,1.58
2023-04-03T13:02:46.149Z,1.50
2023-04-03T13:03:57.840Z,1.65
2023-04-03T13:05:05.833Z,1.90
2023-04-03T13:06:07.514Z,1.33
2023-04-03T13:07:20.866Z,1.55
2023-04-03T13:08:22.526Z,1.30
2023-04-03T13:09:27.302Z,1.15
2023-04-03T13:10:28.680Z,1.88
2023-04-03T13:11:41.247Z,1.55
2023-04-03T13:12:55.208Z,1.23
2023-04-03T13:14:06.068Z,1.33
2023-04-03T13:15:21.715Z,1.35
2023-04-03T13:16:23.485Z,1.67
2023-04-03T13:17:26.091Z,1.30
2023-04-03T13:18:33.148Z,1.30
2023-04-03T13:19:34.556Z,1.35
2023-04-03T13:20:38.250Z,1.50
2023-04-03T13:21:39.822Z,1.20
2023-04-03T13:22:52.065Z,1.40
2023-04-03T13:24:11.543Z,1.60
2023-04-03T13:25:18.140Z,1.60
2023-04-03T13:26:22.155Z,1.52
2023-04-03T13:27:24.679Z,1.35
2023-04-03T13:28:26.207Z,2.05
2023-04-03T13:29:34.220Z,1.20
2023-04-03T13:30:38.790Z,1.50
2023-04-03T13:31:41.492Z,1.60
2023-04-03T13:32:44.736Z,1.60
2023-04-03T13:33:57.039Z,1.27
2023-04-03T13:35:08.189Z,1.42
2023-04-03T13:36:19.280Z,1.35
2023-04-03T13:37:27.029Z,1.30
2023-04-03T13:38:34.932Z,1.50
2023-04-03T13:39:39.053Z,1.60
2023-04-03T13:40:58.016Z,1.17
2023-04-03T13:42:02.821Z,1.60
2023-04-03T13:43:19.392Z,1.65
2023-04-03T13:44:23.942Z,1.88
2023-04-03T13:45:29.557Z,1.48
2023-04-03T13:46:32.064Z,1.90
2023-04-03T13:47:40.894Z,1.50
2023-04-03T13:48:53.454Z,1.40
2023-04-03T13:50:11.970Z,1.65
2023-04-03T13:51:13.289Z,1.60
2023-04-03T13:52:40.885Z,2.00
2023-04-03T13:53:57.989Z,1.70
2023-04-03T14:09:18.580Z,1.67
2023-04-03T14:10:20.456Z,1.60
2023-04-03T14:11:25.143Z,2.22
2023-04-03T14:12:35.145Z,1.85
2023-04-03T14:13:36.551Z,1.23
2023-04-03T14:14:39.344Z,1.90
2023-04-03T14:15:41.239Z,1.73
2023-04-03T14:16:49.197Z,1.45
2023-04-03T14:17:52.537Z,1.90
2023-04-03T14:18:54.491Z,1.30
2023-04-03T14:19:57.642Z,1.50
2023-04-03T14:20:59.115Z,1.90
2023-04-03T14:22:01.846Z,1.55
2023-04-03T14:23:03.789Z,1.52
2023-04-03T14:24:05.231Z,1.63
2023-04-03T14:25:07.064Z,1.35
2023-04-03T14:26:20.123Z,1.50
2023-04-03T14:27:26.377Z,1.48
2023-04-03T14:28:28.013Z,1.38
2023-04-03T14:29:29.400Z,1.30
2023-04-03T14:30:33.642Z,1.92
2023-04-03T14:31:35.218Z,2.90
2023-04-03T14:32:36.765Z,1.73
2023-04-03T15:02:14.920Z,1.92
2023-04-03T15:03:22.968Z,1.90
2023-04-03T15:04:24.753Z,1.20
2023-04-03T15:05:26.293Z,2.00
2023-04-03T15:09:01.063Z,1.73
2023-04-03T15:10:22.066Z,1.10
2023-04-03T15:11:23.512Z,1.30
2023-04-03T15:12:26.557Z,1.88
2023-04-03T15:13:28.053Z,1.42
2023-04-03T15:14:37.073Z,2.83
2023-04-03T15:51:50.609Z,1.40
2023-04-03T15:52:55.357Z,2.00
2023-04-03T15:53:56.941Z,1.52
2023-04-03T15:54:58.474Z,1.70
2023-04-03T15:55:59.859Z,1.58
2023-04-03T15:57:01.386Z,1.40
2023-04-03T15:58:03.571Z,1.85
2023-04-03T15:59:05.202Z,1.35
2023-04-03T16:00:07.966Z,1.60
2023-04-03T16:01:12.334Z,1.40
2023-04-03T16:02:14.260Z,1.92
2023-04-03T16:03:19.180Z,1.10
2023-04-03T16:04:22.183Z,1.40
2023-04-03T16:05:24.224Z,1.55
2023-04-03T16:06:26.956Z,1.38
